sensor_id;sensor_type;location;lat;lon;timestamp;P1;durP1;ratioP1;P2;durP2;ratioP2
26989;SDS011;14537;47.788;11.858;2023-03-23T00:01:32;3.38;;;1.52;;
26989;SDS011;14537;47.788;11.858;2023-03-23T00:04:02;3.70;;;2.25;;
26989;SDS011;14537;47.788;11.858;2023-03-23T00:06:28;3.47;;;1.77;;
26989;SDS011;14537;47.788;11.858;2023-03-23T00:08:59;3.30;;;1.88;;
26989;SDS011;14537;47.788;11.858;2023-03-23T00:11:28;3.53;;;1.77;;
26989;SDS011;14537;47.788;11.858;2023-03-23T00:13:56;3.42;;;2.13;;
26989;SDS011;14537;47.788;11.858;2023-03-23T00:16:25;4.10;;;2.00;;
26989;SDS011;14537;47.788;11.858;2023-03-23T00:19:00;5.55;;;2.65;;
26989;SDS011;14537;47.788;11.858;2023-03-23T00:21:32;9.68;;;3.22;;
26989;SDS011;14537;47.788;11.858;2023-03-23T00:26:29;4.00;;;2.05;;
26989;SDS011;14537;47.788;11.858;2023-03-23T00:28:58;5.10;;;2.63;;
26989;SDS011;14537;47.788;11.858;2023-03-23T00:31:25;4.35;;;1.90;;
26989;SDS011;14537;47.788;11.858;2023-03-23T00:33:56;2.63;;;1.73;;
26989;SDS011;14537;47.788;11.858;2023-03-23T00:36:23;3.20;;;1.40;;
26989;SDS011;14537;47.788;11.858;2023-03-23T00:38:49;3.45;;;1.90;;
26989;SDS011;14537;47.788;11.858;2023-03-23T00:41:15;2.63;;;1.58;;
26989;SDS011;14537;47.788;11.858;2023-03-23T00:43:40;2.70;;;1.48;;
26989;SDS011;14537;47.788;11.858;2023-03-23T00:46:06;4.72;;;1.80;;
26989;SDS011;14537;47.788;11.858;2023-03-23T00:48:37;2.85;;;1.80;;
26989;SDS011;14537;47.788;11.858;2023-03-23T00:51:09;2.83;;;1.65;;
26989;SDS011;14537;47.788;11.858;2023-03-23T00:53:36;3.85;;;1.58;;
26989;SDS011;14537;47.788;11.858;2023-03-23T00:56:02;2.65;;;1.55;;
26989;SDS011;14537;47.788;11.858;2023-03-23T00:58:28;6.93;;;2.17;;
26989;SDS011;14537;47.788;11.858;2023-03-23T01:00:53;1.67;;;1.40;;
26989;SDS011;14537;47.788;11.858;2023-03-23T01:03:19;2.63;;;1.75;;
26989;SDS011;14537;47.788;11.858;2023-03-23T01:05:45;3.67;;;1.73;;
26989;SDS011;14537;47.788;11.858;2023-03-23T01:08:17;2.15;;;1.45;;
26989;SDS011;14537;47.788;11.858;2023-03-23T01:10:45;3.05;;;1.45;;
26989;SDS011;14537;47.788;11.858;2023-03-23T01:13:11;2.92;;;1.55;;
26989;SDS011;14537;47.788;11.858;2023-03-23T01:15:38;4.53;;;1.80;;
26989;SDS011;14537;47.788;11.858;2023-03-23T01:18:04;2.55;;;1.48;;
26989;SDS011;14537;47.788;11.858;2023-03-23T01:20:30;4.10;;;1.95;;
26989;SDS011;14537;47.788;11.858;2023-03-23T01:22:59;3.55;;;1.80;;
26989;SDS011;14537;47.788;11.858;2023-03-23T01:25:29;3.40;;;1.75;;
26989;SDS011;14537;47.788;11.858;2023-03-23T01:27:56;1.63;;;1.20;;
26989;SDS011;14537;47.788;11.858;2023-03-23T01:30:23;2.42;;;1.40;;
26989;SDS011;14537;47.788;11.858;2023-03-23T01:32:49;3.70;;;1.67;;
26989;SDS011;14537;47.788;11.858;2023-03-23T01:35:15;2.88;;;1.67;;
26989;SDS011;14537;47.788;11.858;2023-03-23T01:37:41;4.18;;;1.92;;
26989;SDS011;14537;47.788;11.858;2023-03-23T01:40:07;5.07;;;1.58;;
26989;SDS011;14537;47.788;11.858;2023-03-23T01:42:35;2.58;;;1.60;;
26989;SDS011;14537;47.788;11.858;2023-03-23T01:47:51;4.10;;;1.50;;
26989;SDS011;14537;47.788;11.858;2023-03-23T01:50:17;2.90;;;1.42;;
26989;SDS011;14537;47.788;11.858;2023-03-23T01:52:47;2.70;;;1.65;;
26989;SDS011;14537;47.788;11.858;2023-03-23T01:55:14;3.75;;;2.22;;
26989;SDS011;14537;47.788;11.858;2023-03-23T01:57:40;4.28;;;1.88;;
26989;SDS011;14537;47.788;11.858;2023-03-23T02:00:07;3.63;;;1.83;;
26989;SDS011;14537;47.788;11.858;2023-03-23T02:02:45;4.65;;;1.83;;
26989;SDS011;14537;47.788;11.858;2023-03-23T02:05:15;2.85;;;1.83;;
26989;SDS011;14537;47.788;11.858;2023-03-23T02:07:46;5.47;;;1.52;;
26989;SDS011;14537;47.788;11.858;2023-03-23T02:10:13;3.00;;;1.48;;
26989;SDS011;14537;47.788;11.858;2023-03-23T02:12:39;3.15;;;1.38;;
26989;SDS011;14537;47.788;11.858;2023-03-23T02:15:05;4.47;;;1.83;;
26989;SDS011;14537;47.788;11.858;2023-03-23T02:17:37;2.88;;;1.52;;
26989;SDS011;14537;47.788;11.858;2023-03-23T02:25:33;5.13;;;1.65;;
26989;SDS011;14537;47.788;11.858;2023-03-23T02:36:10;5.07;;;1.88;;
26989;SDS011;14537;47.788;11.858;2023-03-23T02:42:08;4.97;;;1.70;;
26989;SDS011;14537;47.788;11.858;2023-03-23T02:44:31;2.78;;;1.65;;
26989;SDS011;14537;47.788;11.858;2023-03-23T02:47:00;4.22;;;1.65;;
26989;SDS011;14537;47.788;11.858;2023-03-23T02:49:29;2.97;;;1.50;;
26989;SDS011;14537;47.788;11.858;2023-03-23T02:51:58;2.65;;;1.38;;
26989;SDS011;14537;47.788;11.858;2023-03-23T02:54:25;3.33;;;1.63;;
26989;SDS011;14537;47.788;11.858;2023-03-23T02:56:52;4.00;;;1.95;;
26989;SDS011;14537;47.788;11.858;2023-03-23T02:59:20;5.72;;;1.63;;
26989;SDS011;14537;47.788;11.858;2023-03-23T03:01:48;3.58;;;1.80;;
26989;SDS011;14537;47.788;11.858;2023-03-23T03:04:19;4.80;;;1.70;;
26989;SDS011;14537;47.788;11.858;2023-03-23T03:09:55;3.50;;;1.70;;
26989;SDS011;14537;47.788;11.858;2023-03-23T03:12:31;2.67;;;1.60;;
26989;SDS011;14537;47.788;11.858;2023-03-23T03:15:32;2.67;;;1.42;;
26989;SDS011;14537;47.788;11.858;2023-03-23T03:20:45;3.78;;;1.80;;
26989;SDS011;14537;47.788;11.858;2023-03-23T03:23:14;3.08;;;1.35;;
26989;SDS011;14537;47.788;11.858;2023-03-23T03:25:42;2.83;;;1.42;;
26989;SDS011;14537;47.788;11.858;2023-03-23T03:28:14;3.30;;;1.70;;
26989;SDS011;14537;47.788;11.858;2023-03-23T03:30:41;3.10;;;1.60;;
26989;SDS011;14537;47.788;11.858;2023-03-23T03:33:10;6.03;;;1.70;;
26989;SDS011;14537;47.788;11.858;2023-03-23T03:35:37;2.70;;;1.55;;
26989;SDS011;14537;47.788;11.858;2023-03-23T03:38:07;5.30;;;1.77;;
26989;SDS011;14537;47.788;11.858;2023-03-23T03:40:34;3.40;;;1.50;;
26989;SDS011;14537;47.788;11.858;2023-03-23T03:42:59;3.13;;;1.63;;
26989;SDS011;14537;47.788;11.858;2023-03-23T03:45:26;3.22;;;1.13;;
26989;SDS011;14537;47.788;11.858;2023-03-23T03:47:51;2.08;;;1.55;;
26989;SDS011;14537;47.788;11.858;2023-03-23T03:50:17;7.55;;;1.77;;
26989;SDS011;14537;47.788;11.858;2023-03-23T03:52:43;4.60;;;1.75;;
26989;SDS011;14537;47.788;11.858;2023-03-23T03:55:09;2.58;;;1.42;;
26989;SDS011;14537;47.788;11.858;2023-03-23T03:57:35;5.65;;;1.20;;
26989;SDS011;14537;47.788;11.858;2023-03-23T04:00:02;2.70;;;1.55;;
26989;SDS011;14537;47.788;11.858;2023-03-23T04:02:38;2.92;;;1.45;;
26989;SDS011;14537;47.788;11.858;2023-03-23T04:05:05;4.32;;;1.48;;
26989;SDS011;14537;47.788;11.858;2023-03-23T04:07:31;5.15;;;1.40;;
26989;SDS011;14537;47.788;11.858;2023-03-23T04:09:57;1.80;;;1.38;;
26989;SDS011;14537;47.788;11.858;2023-03-23T04:12:22;5.68;;;1.60;;
26989;SDS011;14537;47.788;11.858;2023-03-23T04:14:48;1.20;;;1.08;;
26989;SDS011;14537;47.788;11.858;2023-03-23T04:17:14;3.05;;;1.83;;
26989;SDS011;14537;47.788;11.858;2023-03-23T04:19:39;3.15;;;1.42;;
26989;SDS011;14537;47.788;11.858;2023-03-23T04:22:06;4.30;;;1.98;;
26989;SDS011;14537;47.788;11.858;2023-03-23T04:24:32;3.30;;;1.67;;
26989;SDS011;14537;47.788;11.858;2023-03-23T04:26:58;1.73;;;1.10;;
26989;SDS011;14537;47.788;11.858;2023-03-23T04:29:24;3.33;;;1.42;;
26989;SDS011;14537;47.788;11.858;2023-03-23T04:31:50;3.88;;;1.60;;
26989;SDS011;14537;47.788;11.858;2023-03-23T04:34:17;4.90;;;1.67;;
26989;SDS011;14537;47.788;11.858;2023-03-23T04:36:43;2.58;;;1.50;;
26989;SDS011;14537;47.788;11.858;2023-03-23T04:39:11;2.75;;;1.50;;
26989;SDS011;14537;47.788;11.858;2023-03-23T04:41:38;2.58;;;1.65;;
26989;SDS011;14537;47.788;11.858;2023-03-23T04:44:05;3.15;;;1.50;;
26989;SDS011;14537;47.788;11.858;2023-03-23T04:46:31;3.85;;;1.40;;
26989;SDS011;14537;47.788;11.858;2023-03-23T04:48:58;4.13;;;1.70;;
26989;SDS011;14537;47.788;11.858;2023-03-23T04:51:24;7.03;;;1.55;;
26989;SDS011;14537;47.788;11.858;2023-03-23T04:53:52;3.08;;;1.63;;
26989;SDS011;14537;47.788;11.858;2023-03-23T04:56:18;3.47;;;1.73;;
26989;SDS011;14537;47.788;11.858;2023-03-23T04:58:44;3.15;;;1.60;;
26989;SDS011;14537;47.788;11.858;2023-03-23T05:01:10;4.13;;;1.70;;
26989;SDS011;14537;47.788;11.858;2023-03-23T05:03:38;7.85;;;1.27;;
26989;SDS011;14537;47.788;11.858;2023-03-23T05:06:05;4.97;;;1.83;;
26989;SDS011;14537;47.788;11.858;2023-03-23T05:08:31;2.58;;;1.27;;
26989;SDS011;14537;47.788;11.858;2023-03-23T05:10:58;3.33;;;1.55;;
26989;SDS011;14537;47.788;11.858;2023-03-23T05:13:25;2.22;;;1.60;;
26989;SDS011;14537;47.788;11.858;2023-03-23T05:15:53;4.43;;;1.80;;
26989;SDS011;14537;47.788;11.858;2023-03-23T05:18:20;2.63;;;1.50;;
26989;SDS011;14537;47.788;11.858;2023-03-23T05:20:46;2.80;;;1.67;;
26989;SDS011;14537;47.788;11.858;2023-03-23T05:23:11;2.55;;;1.50;;
26989;SDS011;14537;47.788;11.858;2023-03-23T05:25:38;2.15;;;1.02;;
26989;SDS011;14537;47.788;11.858;2023-03-23T05:28:10;2.22;;;1.38;;
26989;SDS011;14537;47.788;11.858;2023-03-23T05:33:03;6.35;;;1.45;;
26989;SDS011;14537;47.788;11.858;2023-03-23T05:35:29;2.70;;;1.60;;
26989;SDS011;14537;47.788;11.858;2023-03-23T05:37:55;4.18;;;1.42;;
26989;SDS011;14537;47.788;11.858;2023-03-23T05:40:24;1.88;;;1.27;;
26989;SDS011;14537;47.788;11.858;2023-03-23T05:42:51;4.32;;;1.80;;
26989;SDS011;14537;47.788;11.858;2023-03-23T05:45:17;2.80;;;1.38;;
26989;SDS011;14537;47.788;11.858;2023-03-23T05:47:43;2.03;;;1.10;;
26989;SDS011;14537;47.788;11.858;2023-03-23T05:50:09;3.33;;;1.50;;
26989;SDS011;14537;47.788;11.858;2023-03-23T05:52:35;2.47;;;1.40;;
26989;SDS011;14537;47.788;11.858;2023-03-23T05:55:01;3.60;;;1.40;;
26989;SDS011;14537;47.788;11.858;2023-03-23T05:57:28;3.10;;;1.80;;
26989;SDS011;14537;47.788;11.858;2023-03-23T05:59:54;3.88;;;1.88;;
26989;SDS011;14537;47.788;11.858;2023-03-23T06:02:22;2.40;;;1.65;;
26989;SDS011;14537;47.788;11.858;2023-03-23T06:04:49;2.75;;;1.50;;
26989;SDS011;14537;47.788;11.858;2023-03-23T06:07:15;4.72;;;1.90;;
26989;SDS011;14537;47.788;11.858;2023-03-23T06:09:41;7.20;;;1.90;;
26989;SDS011;14537;47.788;11.858;2023-03-23T06:12:07;4.95;;;1.83;;
26989;SDS011;14537;47.788;11.858;2023-03-23T06:14:34;2.85;;;1.83;;
26989;SDS011;14537;47.788;11.858;2023-03-23T06:17:01;4.35;;;1.92;;
26989;SDS011;14537;47.788;11.858;2023-03-23T06:19:27;8.10;;;2.10;;
26989;SDS011;14537;47.788;11.858;2023-03-23T06:21:55;2.50;;;1.65;;
26989;SDS011;14537;47.788;11.858;2023-03-23T06:24:21;4.30;;;2.28;;
26989;SDS011;14537;47.788;11.858;2023-03-23T06:26:47;5.20;;;1.70;;
26989;SDS011;14537;47.788;11.858;2023-03-23T06:29:13;4.47;;;1.60;;
26989;SDS011;14537;47.788;11.858;2023-03-23T06:31:40;6.47;;;2.45;;
26989;SDS011;14537;47.788;11.858;2023-03-23T06:34:08;4.88;;;2.50;;
26989;SDS011;14537;47.788;11.858;2023-03-23T06:36:35;4.22;;;2.15;;
26989;SDS011;14537;47.788;11.858;2023-03-23T06:39:01;5.05;;;2.40;;
26989;SDS011;14537;47.788;11.858;2023-03-23T06:41:29;5.97;;;2.53;;
26989;SDS011;14537;47.788;11.858;2023-03-23T06:43:58;9.73;;;2.60;;
26989;SDS011;14537;47.788;11.858;2023-03-23T06:46:25;4.47;;;2.35;;
26989;SDS011;14537;47.788;11.858;2023-03-23T06:48:51;5.78;;;2.60;;
26989;SDS011;14537;47.788;11.858;2023-03-23T06:51:17;5.60;;;2.78;;
26989;SDS011;14537;47.788;11.858;2023-03-23T06:53:43;4.00;;;1.83;;
26989;SDS011;14537;47.788;11.858;2023-03-23T06:56:08;4.75;;;1.95;;
26989;SDS011;14537;47.788;11.858;2023-03-23T06:58:35;4.90;;;2.22;;
26989;SDS011;14537;47.788;11.858;2023-03-23T07:01:01;2.97;;;1.90;;
26989;SDS011;14537;47.788;11.858;2023-03-23T07:03:26;3.10;;;1.67;;
26989;SDS011;14537;47.788;11.858;2023-03-23T07:05:53;6.47;;;1.98;;
26989;SDS011;14537;47.788;11.858;2023-03-23T07:08:19;6.68;;;1.90;;
26989;SDS011;14537;47.788;11.858;2023-03-23T07:10:46;4.93;;;1.75;;
26989;SDS011;14537;47.788;11.858;2023-03-23T07:13:12;5.00;;;1.80;;
26989;SDS011;14537;47.788;11.858;2023-03-23T07:15:38;1.98;;;1.33;;
26989;SDS011;14537;47.788;11.858;2023-03-23T07:18:04;2.83;;;1.83;;
26989;SDS011;14537;47.788;11.858;2023-03-23T07:20:30;5.20;;;2.03;;
26989;SDS011;14537;47.788;11.858;2023-03-23T07:22:56;3.15;;;1.85;;
26989;SDS011;14537;47.788;11.858;2023-03-23T07:25:22;7.78;;;1.90;;
26989;SDS011;14537;47.788;11.858;2023-03-23T07:27:47;2.80;;;1.70;;
26989;SDS011;14537;47.788;11.858;2023-03-23T07:30:13;6.78;;;2.42;;
26989;SDS011;14537;47.788;11.858;2023-03-23T07:32:39;9.00;;;3.40;;
26989;SDS011;14537;47.788;11.858;2023-03-23T07:35:06;12.50;;;3.53;;
26989;SDS011;14537;47.788;11.858;2023-03-23T07:37:34;8.05;;;3.72;;
26989;SDS011;14537;47.788;11.858;2023-03-23T07:40:00;6.50;;;2.88;;
26989;SDS011;14537;47.788;11.858;2023-03-23T07:42:39;4.57;;;2.38;;
26989;SDS011;14537;47.788;11.858;2023-03-23T07:45:09;6.13;;;2.42;;
26989;SDS011;14537;47.788;11.858;2023-03-23T07:47:36;6.95;;;2.30;;
26989;SDS011;14537;47.788;11.858;2023-03-23T07:50:03;4.63;;;1.90;;
26989;SDS011;14537;47.788;11.858;2023-03-23T07:52:29;5.93;;;2.42;;
26989;SDS011;14537;47.788;11.858;2023-03-23T07:54:56;6.10;;;2.60;;
26989;SDS011;14537;47.788;11.858;2023-03-23T07:57:21;4.70;;;2.42;;
26989;SDS011;14537;47.788;11.858;2023-03-23T07:59:47;4.57;;;2.28;;
26989;SDS011;14537;47.788;11.858;2023-03-23T08:02:13;2.33;;;1.45;;
26989;SDS011;14537;47.788;11.858;2023-03-23T08:04:39;2.78;;;1.60;;
26989;SDS011;14537;47.788;11.858;2023-03-23T08:07:04;9.52;;;1.65;;
26989;SDS011;14537;47.788;11.858;2023-03-23T08:09:30;6.03;;;1.90;;
26989;SDS011;14537;47.788;11.858;2023-03-23T08:11:56;6.47;;;2.15;;
26989;SDS011;14537;47.788;11.858;2023-03-23T08:14:22;3.88;;;1.88;;
26989;SDS011;14537;47.788;11.858;2023-03-23T08:16:51;4.13;;;2.10;;
26989;SDS011;14537;47.788;11.858;2023-03-23T08:19:17;4.55;;;2.13;;
26989;SDS011;14537;47.788;11.858;2023-03-23T08:21:43;5.03;;;2.25;;
26989;SDS011;14537;47.788;11.858;2023-03-23T08:24:08;4.43;;;2.00;;
26989;SDS011;14537;47.788;11.858;2023-03-23T08:26:36;6.78;;;2.58;;
26989;SDS011;14537;47.788;11.858;2023-03-23T08:29:02;3.85;;;1.90;;
26989;SDS011;14537;47.788;11.858;2023-03-23T08:31:29;8.20;;;2.20;;
26989;SDS011;14537;47.788;11.858;2023-03-23T08:33:54;3.83;;;1.90;;
26989;SDS011;14537;47.788;11.858;2023-03-23T08:36:22;4.95;;;2.40;;
26989;SDS011;14537;47.788;11.858;2023-03-23T08:38:48;5.40;;;2.40;;
26989;SDS011;14537;47.788;11.858;2023-03-23T08:41:16;6.47;;;2.50;;
26989;SDS011;14537;47.788;11.858;2023-03-23T08:43:42;2.75;;;1.77;;
26989;SDS011;14537;47.788;11.858;2023-03-23T08:46:08;5.25;;;2.17;;
26989;SDS011;14537;47.788;11.858;2023-03-23T08:48:36;3.83;;;2.15;;
26989;SDS011;14537;47.788;11.858;2023-03-23T08:51:03;7.07;;;2.50;;
26989;SDS011;14537;47.788;11.858;2023-03-23T08:53:30;4.10;;;2.40;;
26989;SDS011;14537;47.788;11.858;2023-03-23T08:55:56;6.47;;;2.35;;
26989;SDS011;14537;47.788;11.858;2023-03-23T08:58:28;2.38;;;1.70;;
26989;SDS011;14537;47.788;11.858;2023-03-23T09:00:54;5.30;;;2.47;;
26989;SDS011;14537;47.788;11.858;2023-03-23T09:03:19;6.30;;;2.53;;
26989;SDS011;14537;47.788;11.858;2023-03-23T09:05:45;8.35;;;3.03;;
26989;SDS011;14537;47.788;11.858;2023-03-23T09:08:11;4.40;;;2.20;;
26989;SDS011;14537;47.788;11.858;2023-03-23T09:10:37;4.10;;;2.10;;
26989;SDS011;14537;47.788;11.858;2023-03-23T09:13:04;4.55;;;2.10;;
26989;SDS011;14537;47.788;11.858;2023-03-23T09:15:29;5.75;;;2.55;;
26989;SDS011;14537;47.788;11.858;2023-03-23T09:17:56;5.00;;;2.00;;
26989;SDS011;14537;47.788;11.858;2023-03-23T09:20:23;4.57;;;2.30;;
26989;SDS011;14537;47.788;11.858;2023-03-23T09:22:51;4.68;;;2.00;;
26989;SDS011;14537;47.788;11.858;2023-03-23T09:25:20;5.97;;;2.45;;
26989;SDS011;14537;47.788;11.858;2023-03-23T09:27:54;4.30;;;2.00;;
26989;SDS011;14537;47.788;11.858;2023-03-23T09:30:26;7.20;;;2.20;;
26989;SDS011;14537;47.788;11.858;2023-03-23T09:32:54;4.53;;;2.08;;
26989;SDS011;14537;47.788;11.858;2023-03-23T09:35:20;5.78;;;2.25;;
26989;SDS011;14537;47.788;11.858;2023-03-23T09:37:49;5.25;;;2.20;;
26989;SDS011;14537;47.788;11.858;2023-03-23T09:40:18;5.57;;;1.98;;
26989;SDS011;14537;47.788;11.858;2023-03-23T09:42:56;3.95;;;1.92;;
26989;SDS011;14537;47.788;11.858;2023-03-23T09:50:25;7.23;;;2.60;;
26989;SDS011;14537;47.788;11.858;2023-03-23T09:53:02;2.90;;;2.03;;
26989;SDS011;14537;47.788;11.858;2023-03-23T09:55:35;6.47;;;2.50;;
26989;SDS011;14537;47.788;11.858;2023-03-23T09:58:08;7.82;;;2.90;;
26989;SDS011;14537;47.788;11.858;2023-03-23T10:01:33;6.00;;;2.90;;
26989;SDS011;14537;47.788;11.858;2023-03-23T10:04:09;6.57;;;2.80;;
26989;SDS011;14537;47.788;11.858;2023-03-23T10:06:41;3.53;;;2.45;;
26989;SDS011;14537;47.788;11.858;2023-03-23T10:09:08;7.47;;;2.80;;
26989;SDS011;14537;47.788;11.858;2023-03-23T10:14:34;8.93;;;3.72;;
26989;SDS011;14537;47.788;11.858;2023-03-23T10:17:14;7.97;;;4.13;;
26989;SDS011;14537;47.788;11.858;2023-03-23T10:22:31;7.65;;;3.90;;
26989;SDS011;14537;47.788;11.858;2023-03-23T10:25:04;10.15;;;4.43;;
26989;SDS011;14537;47.788;11.858;2023-03-23T10:30:24;11.77;;;4.50;;
26989;SDS011;14537;47.788;11.858;2023-03-23T10:33:01;12.45;;;5.60;;
26989;SDS011;14537;47.788;11.858;2023-03-23T10:35:37;9.50;;;4.68;;
26989;SDS011;14537;47.788;11.858;2023-03-23T10:38:11;11.25;;;5.32;;
26989;SDS011;14537;47.788;11.858;2023-03-23T10:40:48;14.65;;;5.75;;
26989;SDS011;14537;47.788;11.858;2023-03-23T10:43:41;14.90;;;5.43;;
26989;SDS011;14537;47.788;11.858;2023-03-23T10:49:19;13.60;;;5.60;;
26989;SDS011;14537;47.788;11.858;2023-03-23T10:51:55;19.42;;;6.03;;
26989;SDS011;14537;47.788;11.858;2023-03-23T10:54:31;11.32;;;6.07;;
26989;SDS011;14537;47.788;11.858;2023-03-23T10:57:13;11.10;;;5.30;;
26989;SDS011;14537;47.788;11.858;2023-03-23T10:59:47;10.35;;;4.78;;
26989;SDS011;14537;47.788;11.858;2023-03-23T11:02:19;10.38;;;4.80;;
26989;SDS011;14537;47.788;11.858;2023-03-23T11:05:01;11.30;;;5.20;;
26989;SDS011;14537;47.788;11.858;2023-03-23T11:07:32;9.02;;;4.10;;
26989;SDS011;14537;47.788;11.858;2023-03-23T11:10:22;7.95;;;3.33;;
26989;SDS011;14537;47.788;11.858;2023-03-23T11:13:10;5.65;;;3.42;;
26989;SDS011;14537;47.788;11.858;2023-03-23T11:15:40;6.28;;;3.00;;
26989;SDS011;14537;47.788;11.858;2023-03-23T11:18:26;6.07;;;3.22;;
26989;SDS011;14537;47.788;11.858;2023-03-23T11:21:01;5.97;;;2.83;;
26989;SDS011;14537;47.788;11.858;2023-03-23T11:23:38;30.63;;;4.30;;
26989;SDS011;14537;47.788;11.858;2023-03-23T11:26:13;5.13;;;2.53;;
26989;SDS011;14537;47.788;11.858;2023-03-23T11:28:52;6.07;;;2.53;;
26989;SDS011;14537;47.788;11.858;2023-03-23T11:31:38;7.20;;;2.88;;
26989;SDS011;14537;47.788;11.858;2023-03-23T11:34:12;8.07;;;2.55;;
26989;SDS011;14537;47.788;11.858;2023-03-23T11:37:25;7.03;;;2.80;;
26989;SDS011;14537;47.788;11.858;2023-03-23T11:42:44;6.22;;;2.80;;
26989;SDS011;14537;47.788;11.858;2023-03-23T11:45:14;5.05;;;2.40;;
26989;SDS011;14537;47.788;11.858;2023-03-23T11:47:51;6.90;;;2.88;;
26989;SDS011;14537;47.788;11.858;2023-03-23T11:50:30;5.53;;;2.58;;
26989;SDS011;14537;47.788;11.858;2023-03-23T11:53:10;4.55;;;2.63;;
26989;SDS011;14537;47.788;11.858;2023-03-23T11:58:11;6.00;;;2.55;;
26989;SDS011;14537;47.788;11.858;2023-03-23T12:06:19;5.57;;;3.05;;
26989;SDS011;14537;47.788;11.858;2023-03-23T12:09:07;6.07;;;2.97;;
26989;SDS011;14537;47.788;11.858;2023-03-23T12:18:05;6.32;;;2.70;;
26989;SDS011;14537;47.788;11.858;2023-03-23T12:23:42;4.70;;;2.33;;
26989;SDS011;14537;47.788;11.858;2023-03-23T12:39:58;3.63;;;1.92;;
26989;SDS011;14537;47.788;11.858;2023-03-23T12:42:43;5.97;;;2.30;;
26989;SDS011;14537;47.788;11.858;2023-03-23T12:48:18;5.53;;;2.38;;
26989;SDS011;14537;47.788;11.858;2023-03-23T12:51:05;5.68;;;2.30;;
26989;SDS011;14537;47.788;11.858;2023-03-23T12:53:38;3.63;;;2.00;;
26989;SDS011;14537;47.788;11.858;2023-03-23T12:58:42;4.78;;;2.30;;
26989;SDS011;14537;47.788;11.858;2023-03-23T13:03:52;7.10;;;2.50;;
26989;SDS011;14537;47.788;11.858;2023-03-23T13:06:41;5.88;;;2.40;;
26989;SDS011;14537;47.788;11.858;2023-03-23T13:09:30;7.07;;;2.42;;
26989;SDS011;14537;47.788;11.858;2023-03-23T13:12:04;6.18;;;2.78;;
26989;SDS011;14537;47.788;11.858;2023-03-23T13:17:22;6.07;;;2.38;;
26989;SDS011;14537;47.788;11.858;2023-03-23T13:20:33;3.40;;;2.22;;
26989;SDS011;14537;47.788;11.858;2023-03-23T13:22:59;5.63;;;2.38;;
26989;SDS011;14537;47.788;11.858;2023-03-23T13:25:46;4.90;;;2.08;;
26989;SDS011;14537;47.788;11.858;2023-03-23T13:28:32;6.13;;;2.77;;
26989;SDS011;14537;47.788;11.858;2023-03-23T13:33:30;6.10;;;2.35;;
26989;SDS011;14537;47.788;11.858;2023-03-23T13:36:02;4.55;;;2.03;;
26989;SDS011;14537;47.788;11.858;2023-03-23T13:38:31;4.22;;;2.38;;
26989;SDS011;14537;47.788;11.858;2023-03-23T13:40:57;6.32;;;2.95;;
26989;SDS011;14537;47.788;11.858;2023-03-23T13:43:35;6.43;;;2.33;;
26989;SDS011;14537;47.788;11.858;2023-03-23T13:46:11;4.55;;;2.17;;
26989;SDS011;14537;47.788;11.858;2023-03-23T13:48:47;7.80;;;2.60;;
26989;SDS011;14537;47.788;11.858;2023-03-23T13:56:58;5.25;;;2.67;;
26989;SDS011;14537;47.788;11.858;2023-03-23T14:01:51;6.32;;;2.75;;
26989;SDS011;14537;47.788;11.858;2023-03-23T14:04:22;5.70;;;2.50;;
26989;SDS011;14537;47.788;11.858;2023-03-23T14:06:55;5.50;;;2.70;;
26989;SDS011;14537;47.788;11.858;2023-03-23T14:09:32;4.95;;;2.40;;
26989;SDS011;14537;47.788;11.858;2023-03-23T14:12:03;6.05;;;2.70;;
26989;SDS011;14537;47.788;11.858;2023-03-23T14:14:50;5.80;;;2.50;;
26989;SDS011;14537;47.788;11.858;2023-03-23T14:17:25;4.68;;;2.65;;
26989;SDS011;14537;47.788;11.858;2023-03-23T14:19:53;6.50;;;3.10;;
26989;SDS011;14537;47.788;11.858;2023-03-23T14:22:31;5.75;;;2.70;;
26989;SDS011;14537;47.788;11.858;2023-03-23T14:25:02;4.65;;;2.28;;
26989;SDS011;14537;47.788;11.858;2023-03-23T14:27:36;4.95;;;2.38;;
26989;SDS011;14537;47.788;11.858;2023-03-23T14:30:06;5.22;;;2.67;;
26989;SDS011;14537;47.788;11.858;2023-03-23T14:32:44;5.00;;;2.25;;
26989;SDS011;14537;47.788;11.858;2023-03-23T14:35:26;4.93;;;2.42;;
26989;SDS011;14537;47.788;11.858;2023-03-23T14:37:56;3.92;;;1.65;;
26989;SDS011;14537;47.788;11.858;2023-03-23T14:40:22;3.45;;;1.90;;
26989;SDS011;14537;47.788;11.858;2023-03-23T14:42:52;6.78;;;2.08;;
26989;SDS011;14537;47.788;11.858;2023-03-23T14:45:19;3.67;;;2.00;;
26989;SDS011;14537;47.788;11.858;2023-03-23T14:47:50;7.85;;;2.60;;
26989;SDS011;14537;47.788;11.858;2023-03-23T14:50:22;4.47;;;2.10;;
26989;SDS011;14537;47.788;11.858;2023-03-23T14:53:03;7.00;;;2.25;;
26989;SDS011;14537;47.788;11.858;2023-03-23T14:55:41;6.13;;;2.10;;
26989;SDS011;14537;47.788;11.858;2023-03-23T14:58:08;11.07;;;2.58;;
26989;SDS011;14537;47.788;11.858;2023-03-23T15:00:39;3.35;;;1.70;;
26989;SDS011;14537;47.788;11.858;2023-03-23T15:03:12;3.33;;;1.88;;
26989;SDS011;14537;47.788;11.858;2023-03-23T15:05:42;3.97;;;1.58;;
26989;SDS011;14537;47.788;11.858;2023-03-23T15:08:17;7.82;;;1.35;;
26989;SDS011;14537;47.788;11.858;2023-03-23T15:10:54;2.60;;;1.30;;
26989;SDS011;14537;47.788;11.858;2023-03-23T15:13:27;1.85;;;0.90;;
26989;SDS011;14537;47.788;11.858;2023-03-23T15:16:00;3.63;;;1.30;;
26989;SDS011;14537;47.788;11.858;2023-03-23T15:18:33;5.20;;;1.40;;
26989;SDS011;14537;47.788;11.858;2023-03-23T15:21:08;4.13;;;1.30;;
26989;SDS011;14537;47.788;11.858;2023-03-23T15:23:40;2.40;;;1.05;;
26989;SDS011;14537;47.788;11.858;2023-03-23T15:26:23;2.15;;;1.17;;
26989;SDS011;14537;47.788;11.858;2023-03-23T15:31:43;1.20;;;1.10;;
26989;SDS011;14537;47.788;11.858;2023-03-23T15:34:20;1.80;;;1.00;;
26989;SDS011;14537;47.788;11.858;2023-03-23T15:36:55;2.35;;;1.00;;
26989;SDS011;14537;47.788;11.858;2023-03-23T15:39:26;2.90;;;1.30;;
26989;SDS011;14537;47.788;11.858;2023-03-23T15:41:53;1.25;;;1.00;;
26989;SDS011;14537;47.788;11.858;2023-03-23T15:44:24;11.55;;;4.85;;
26989;SDS011;14537;47.788;11.858;2023-03-23T15:47:10;3.35;;;1.42;;
26989;SDS011;14537;47.788;11.858;2023-03-23T15:49:43;4.18;;;1.30;;
26989;SDS011;14537;47.788;11.858;2023-03-23T15:52:10;1.90;;;1.20;;
26989;SDS011;14537;47.788;11.858;2023-03-23T15:54:37;3.17;;;1.27;;
26989;SDS011;14537;47.788;11.858;2023-03-23T15:57:03;3.10;;;1.90;;
26989;SDS011;14537;47.788;11.858;2023-03-23T15:59:29;2.85;;;1.40;;
26989;SDS011;14537;47.788;11.858;2023-03-23T16:01:55;2.65;;;1.45;;
26989;SDS011;14537;47.788;11.858;2023-03-23T16:04:24;1.65;;;1.30;;
26989;SDS011;14537;47.788;11.858;2023-03-23T16:06:51;3.67;;;1.33;;
26989;SDS011;14537;47.788;11.858;2023-03-23T16:09:19;4.75;;;1.40;;
26989;SDS011;14537;47.788;11.858;2023-03-23T16:11:45;3.42;;;1.42;;
26989;SDS011;14537;47.788;11.858;2023-03-23T16:14:11;3.75;;;1.63;;
26989;SDS011;14537;47.788;11.858;2023-03-23T16:16:38;4.63;;;1.50;;
26989;SDS011;14537;47.788;11.858;2023-03-23T16:19:12;10.82;;;4.75;;
26989;SDS011;14537;47.788;11.858;2023-03-23T16:21:39;23.13;;;8.82;;
26989;SDS011;14537;47.788;11.858;2023-03-23T16:24:05;14.27;;;6.28;;
26989;SDS011;14537;47.788;11.858;2023-03-23T16:26:32;4.53;;;2.58;;
26989;SDS011;14537;47.788;11.858;2023-03-23T16:28:58;4.50;;;2.75;;
26989;SDS011;14537;47.788;11.858;2023-03-23T16:31:24;3.20;;;1.75;;
26989;SDS011;14537;47.788;11.858;2023-03-23T16:33:50;4.90;;;1.50;;
26989;SDS011;14537;47.788;11.858;2023-03-23T16:36:16;4.70;;;2.03;;